createdAt,value
2023-04-08T00:00:09.908Z,11.93
2023-04-08T00:02:39.020Z,12.87
2023-04-08T00:05:09.372Z,12.67
2023-04-08T00:07:38.982Z,11.97
2023-04-08T00:10:11.149Z,12.20
2023-04-08T00:12:40.389Z,12.40
2023-04-08T00:15:10.224Z,12.73
2023-04-08T00:17:39.163Z,13.63
2023-04-08T00:20:09.659Z,13.07
2023-04-08T00:22:38.686Z,13.50
2023-04-08T00:25:10.795Z,13.43
2023-04-08T00:27:40.099Z,13.27
2023-04-08T00:30:10.242Z,14.47
2023-04-08T00:32:39.453Z,13.00
2023-04-08T00:35:09.332Z,14.40
2023-04-08T00:37:38.153Z,12.63
2023-04-08T00:40:09.963Z,12.10
2023-04-08T00:42:38.915Z,12.53
2023-04-08T00:45:09.727Z,13.27
2023-04-08T00:47:39.589Z,13.67
2023-04-08T00:50:11.627Z,12.50
2023-04-08T00:52:40.646Z,11.57
2023-04-08T00:55:11.543Z,11.53
2023-04-08T00:57:40.750Z,11.27
2023-04-08T01:00:12.159Z,11.40
2023-04-08T01:02:49.320Z,11.30
2023-04-08T01:05:32.046Z,10.30
2023-04-08T01:08:06.838Z,10.73
2023-04-08T01:10:43.091Z,10.33
2023-04-08T01:13:19.726Z,11.20
2023-04-08T01:15:50.698Z,11.10
2023-04-08T01:18:21.955Z,11.43
2023-04-08T01:20:55.880Z,10.50
2023-04-08T01:23:34.557Z,10.70
2023-04-08T01:26:05.334Z,9.23
2023-04-08T01:28:36.586Z,9.43
2023-04-08T01:31:06.093Z,10.47
2023-04-08T01:33:36.141Z,10.60
2023-04-08T01:36:07.589Z,9.70
2023-04-08T01:38:38.013Z,10.33
2023-04-08T01:41:11.906Z,10.97
2023-04-08T01:43:44.044Z,10.07
2023-04-08T01:46:15.041Z,9.73
2023-04-08T01:48:46.082Z,10.37
2023-04-08T01:51:18.096Z,10.27
2023-04-08T01:53:51.414Z,10.03
2023-04-08T01:56:25.603Z,9.53
2023-04-08T01:58:58.721Z,10.90
2023-04-08T02:01:31.100Z,9.73
2023-04-08T02:04:03.188Z,10.40
2023-04-08T02:06:34.008Z,9.83
2023-04-08T02:09:04.624Z,10.13
2023-04-08T02:11:35.221Z,9.83
2023-04-08T02:14:04.458Z,9.97
2023-04-08T02:16:42.762Z,9.00
2023-04-08T02:19:19.813Z,9.63
2023-04-08T02:21:57.049Z,8.70
2023-04-08T02:24:27.922Z,9.27
2023-04-08T02:26:59.808Z,9.90
2023-04-08T02:29:32.799Z,9.10
2023-04-08T02:32:05.513Z,9.40
2023-04-08T02:34:36.409Z,9.57
2023-04-08T02:37:05.529Z,9.57
2023-04-08T02:39:34.760Z,9.13
2023-04-08T02:42:06.617Z,9.57
2023-04-08T02:44:35.645Z,9.70
2023-04-08T02:47:05.389Z,9.93
2023-04-08T02:49:34.325Z,9.50
2023-04-08T02:52:03.560Z,9.77
2023-04-08T02:54:32.691Z,9.67
2023-04-08T02:57:01.550Z,8.93
2023-04-08T02:59:31.819Z,9.47
2023-04-08T03:02:00.936Z,8.87
2023-04-08T03:04:30.021Z,10.70
2023-04-08T03:06:58.947Z,9.20
2023-04-08T03:09:28.141Z,10.10
2023-04-08T03:11:57.200Z,10.00
2023-04-08T03:14:27.017Z,10.30
2023-04-08T03:17:00.693Z,10.10
2023-04-08T03:19:29.920Z,10.57
2023-04-08T03:21:58.823Z,10.33
2023-04-08T03:24:27.742Z,9.63
2023-04-08T03:26:56.721Z,9.57
2023-04-08T03:29:25.661Z,10.17
2023-04-08T03:31:55.018Z,9.23
2023-04-08T03:34:25.414Z,9.37
2023-04-08T03:36:54.512Z,8.80
2023-04-08T03:39:23.723Z,8.83
2023-04-08T03:41:52.646Z,8.87
2023-04-08T03:44:21.536Z,8.77
2023-04-08T03:46:50.313Z,9.57
2023-04-08T03:49:19.303Z,8.70
2023-04-08T03:51:49.572Z,8.60
2023-04-08T03:54:18.544Z,8.30
2023-04-08T03:56:47.629Z,9.37
2023-04-08T03:59:16.615Z,9.10
2023-04-08T04:01:46.562Z,9.70
2023-04-08T04:04:16.536Z,8.80
2023-04-08T04:06:45.734Z,9.93
2023-04-08T04:09:17.076Z,7.33
2023-04-08T04:11:46.314Z,7.67
2023-04-08T04:14:15.128Z,8.70
2023-04-08T04:16:44.038Z,9.00
2023-04-08T04:19:13.032Z,8.03
2023-04-08T04:21:42.269Z,8.73
2023-04-08T04:24:14.780Z,8.90
2023-04-08T04:26:45.173Z,8.57
2023-04-08T04:29:14.019Z,9.27
2023-04-08T04:31:42.881Z,9.40
2023-04-08T04:34:11.757Z,10.50
2023-04-08T04:36:40.625Z,8.83
2023-04-08T04:39:09.507Z,9.97
2023-04-08T04:41:40.745Z,10.83
2023-04-08T04:44:11.485Z,11.97
2023-04-08T04:46:41.028Z,11.97
2023-04-08T04:49:12.846Z,11.73
2023-04-08T04:51:41.833Z,10.53
2023-04-08T04:54:10.837Z,9.87
2023-04-08T04:56:39.737Z,9.53
2023-04-08T04:59:08.851Z,8.70
2023-04-08T05:01:41.089Z,9.30
2023-04-08T05:04:10.242Z,9.90
2023-04-08T05:06:39.009Z,9.87
2023-04-08T05:09:08.131Z,9.73
2023-04-08T05:11:37.819Z,9.93
2023-04-08T05:14:09.733Z,9.00
2023-04-08T05:16:40.807Z,9.67
2023-04-08T05:19:09.748Z,11.63
2023-04-08T05:21:38.759Z,13.73
2023-04-08T05:24:10.735Z,12.97
2023-04-08T05:26:39.879Z,12.70
2023-04-08T05:29:08.860Z,11.40
2023-04-08T05:31:37.906Z,10.50
2023-04-08T05:34:08.719Z,10.57
2023-04-08T05:36:37.921Z,11.27
2023-04-08T05:39:06.911Z,10.90
2023-04-08T05:41:35.928Z,13.00
2023-04-08T05:44:04.853Z,11.37
2023-04-08T05:46:33.819Z,11.20
2023-04-08T05:49:02.813Z,10.17
2023-04-08T05:51:36.123Z,10.83
2023-04-08T05:54:05.443Z,10.27
2023-04-08T05:56:35.080Z,9.97
2023-04-08T05:59:04.152Z,9.97
2023-04-08T06:01:34.324Z,10.17
2023-04-08T06:04:03.575Z,9.07
2023-04-08T06:06:34.306Z,10.30
2023-04-08T06:09:03.186Z,9.73
2023-04-08T06:11:32.206Z,9.13
2023-04-08T06:14:01.014Z,9.60
2023-04-08T06:16:30.154Z,9.80
2023-04-08T06:18:59.129Z,9.00
2023-04-08T06:21:28.360Z,8.23
2023-04-08T06:23:59.068Z,8.30
2023-04-08T06:26:28.605Z,8.13
2023-04-08T06:28:57.655Z,7.53
2023-04-08T06:31:26.650Z,8.03
2023-04-08T06:33:56.074Z,7.97
2023-04-08T06:36:25.052Z,7.73
2023-04-08T06:38:54.035Z,7.83
2023-04-08T06:41:27.125Z,9.03
2023-04-08T06:43:56.161Z,7.73
2023-04-08T06:46:25.761Z,7.37
2023-04-08T06:48:55.711Z,6.93
2023-04-08T06:51:24.479Z,7.63
2023-04-08T06:53:53.623Z,7.27
2023-04-08T06:56:26.278Z,5.77
2023-04-08T06:58:55.195Z,6.40
2023-04-08T07:01:25.150Z,6.67
2023-04-08T07:03:54.271Z,6.50
2023-04-08T07:06:23.618Z,6.00
2023-04-08T07:08:52.560Z,6.03
2023-04-08T07:11:21.405Z,5.67
2023-04-08T07:13:52.576Z,6.20
2023-04-08T07:16:21.616Z,6.00
2023-04-08T07:18:52.107Z,5.97
2023-04-08T07:21:21.314Z,6.00
2023-04-08T07:23:50.502Z,5.57
2023-04-08T07:26:19.799Z,5.80
2023-04-08T07:28:51.574Z,5.03
2023-04-08T07:31:21.244Z,5.00
2023-04-08T07:33:50.180Z,5.37
2023-04-08T07:36:19.081Z,5.07
2023-04-08T07:38:48.186Z,5.00
2023-04-08T07:41:17.551Z,5.60
2023-04-08T07:43:46.688Z,4.90
2023-04-08T07:46:16.959Z,4.40
2023-04-08T07:48:46.171Z,4.60
2023-04-08T07:51:15.144Z,5.03
2023-04-08T07:53:44.821Z,5.00
2023-04-08T07:56:15.607Z,4.20
2023-04-08T07:58:44.879Z,5.20
2023-04-08T08:01:20.235Z,4.67
2023-04-08T08:03:53.236Z,4.60
2023-04-08T08:06:23.169Z,5.23
2023-04-08T08:08:52.218Z,4.97
2023-04-08T08:11:21.606Z,5.43
2023-04-08T08:13:50.765Z,5.40
2023-04-08T08:16:21.871Z,5.83
2023-04-08T08:18:51.023Z,5.57
2023-04-08T08:21:20.171Z,6.33
2023-04-08T08:23:49.179Z,6.27
2023-04-08T08:26:18.434Z,6.43
2023-04-08T08:28:47.382Z,7.23
2023-04-08T08:31:16.363Z,6.90
2023-04-08T08:33:47.545Z,6.87
2023-04-08T08:36:16.618Z,9.10
2023-04-08T08:38:45.587Z,10.87
2023-04-08T08:41:14.395Z,10.53
2023-04-08T08:43:45.263Z,10.87
2023-04-08T08:46:19.424Z,11.07
2023-04-08T08:48:50.010Z,10.60
2023-04-08T08:51:19.243Z,10.67
2023-04-08T08:53:48.329Z,12.87
2023-04-08T08:56:18.964Z,13.40
2023-04-08T08:58:49.244Z,11.93
2023-04-08T09:01:38.781Z,13.13
2023-04-08T09:04:19.483Z,10.53
2023-04-08T09:06:50.360Z,10.97
2023-04-08T09:09:22.865Z,10.10
2023-04-08T09:12:04.980Z,11.00
2023-04-08T09:14:35.002Z,10.40
2023-04-08T09:31:25.215Z,9.03
2023-04-08T09:33:56.807Z,9.10
2023-04-08T09:36:26.720Z,9.50
2023-04-08T09:38:56.197Z,9.27
2023-04-08T09:41:28.112Z,8.03
2023-04-08T09:43:58.890Z,8.33
2023-04-08T09:46:59.753Z,9.03
2023-04-08T09:49:31.386Z,8.53
2023-04-08T09:52:09.455Z,8.23
2023-04-08T09:54:51.283Z,8.43
2023-04-08T09:57:30.107Z,8.93
2023-04-08T10:00:06.833Z,7.80
2023-04-08T10:02:54.388Z,8.53
2023-04-08T10:05:25.491Z,8.47
2023-04-08T10:07:57.003Z,8.50
2023-04-08T10:10:27.466Z,9.03
2023-04-08T10:12:56.829Z,9.00
2023-04-08T10:15:30.134Z,9.07
2023-04-08T10:18:34.069Z,8.73
2023-04-08T10:21:03.721Z,8.20
2023-04-08T10:23:59.834Z,7.73
2023-04-08T10:26:43.353Z,8.33
2023-04-08T10:29:46.467Z,8.47
2023-04-08T10:32:42.222Z,9.00
2023-04-08T10:35:12.578Z,9.23
2023-04-08T10:37:41.239Z,11.00
2023-04-08T10:40:20.964Z,10.73
2023-04-08T10:42:56.107Z,9.27
2023-04-08T10:45:25.712Z,9.80
2023-04-08T10:47:54.457Z,9.40
2023-04-08T10:50:24.803Z,11.13
2023-04-08T10:52:55.714Z,10.43
2023-04-08T10:55:25.628Z,11.80
2023-04-08T10:57:56.448Z,11.30
2023-04-08T11:00:36.027Z,11.43
2023-04-08T11:03:06.268Z,11.27
2023-04-08T11:05:38.263Z,11.77
2023-04-08T11:08:07.999Z,11.73
2023-04-08T11:10:40.372Z,12.23
2023-04-08T11:13:10.971Z,12.73
2023-04-08T11:15:39.973Z,12.53
2023-04-08T11:18:10.032Z,12.50
2023-04-08T11:20:40.440Z,12.27
2023-04-08T11:23:15.324Z,12.80
2023-04-08T11:25:45.326Z,13.20
2023-04-08T11:28:14.684Z,14.57
2023-04-08T11:30:44.573Z,13.73
2023-04-08T11:33:15.428Z,13.10
2023-04-08T11:35:46.224Z,13.47
2023-04-08T11:38:14.981Z,12.97
2023-04-08T11:40:55.503Z,14.13
2023-04-08T11:43:24.682Z,14.67
2023-04-08T11:45:53.690Z,15.40
2023-04-08T11:48:23.899Z,15.00
2023-04-08T11:51:06.153Z,13.63
2023-04-08T11:53:35.654Z,14.70
2023-04-08T11:56:18.745Z,14.83
2023-04-08T11:58:47.958Z,15.73
2023-04-08T12:01:16.837Z,15.97
2023-04-08T12:04:03.179Z,16.67
2023-04-08T12:06:33.347Z,18.53
2023-04-08T12:09:02.048Z,16.93
2023-04-08T12:11:30.837Z,15.83
2023-04-08T12:13:59.549Z,15.60
2023-04-08T12:16:28.344Z,16.07
2023-04-08T12:18:57.083Z,16.20
2023-04-08T12:21:25.807Z,16.43
2023-04-08T12:23:56.082Z,16.40
2023-04-08T12:26:24.821Z,14.23
2023-04-08T12:28:53.703Z,15.37
2023-04-08T12:31:23.408Z,14.93
2023-04-08T12:33:52.350Z,15.20
2023-04-08T12:36:21.177Z,19.80
2023-04-08T12:38:50.138Z,20.10
2023-04-08T12:41:20.445Z,16.10
2023-04-08T12:43:49.067Z,15.43
2023-04-08T12:46:17.840Z,14.23
2023-04-08T12:48:48.543Z,14.57
2023-04-08T12:51:18.494Z,14.43
2023-04-08T12:53:47.575Z,14.83
2023-04-08T12:56:16.294Z,15.13
2023-04-08T12:58:46.381Z,15.23
2023-04-08T13:01:15.050Z,14.10
2023-04-08T13:03:46.867Z,14.50
2023-04-08T13:06:16.208Z,14.25
2023-04-08T13:08:44.989Z,13.98
2023-04-08T13:11:13.834Z,13.95
2023-04-08T13:13:42.494Z,13.55
2023-04-08T13:16:12.625Z,14.87
2023-04-08T13:18:42.008Z,14.38
2023-04-08T13:21:11.400Z,14.00
2023-04-08T13:23:40.255Z,13.63
2023-04-08T13:26:08.914Z,13.85
2023-04-08T13:28:49.732Z,14.10
2023-04-08T13:31:27.513Z,13.85
2023-04-08T13:33:58.158Z,12.90
2023-04-08T13:36:28.949Z,13.35
2023-04-08T13:38:57.922Z,15.93
2023-04-08T13:41:28.254Z,11.88
2023-04-08T13:43:57.008Z,11.60
2023-04-08T13:46:27.196Z,11.53
2023-04-08T13:48:55.870Z,11.40
2023-04-08T13:51:24.641Z,11.07
2023-04-08T13:53:53.323Z,10.67
2023-04-08T13:56:22.409Z,11.07
2023-04-08T13:58:57.148Z,11.80
2023-04-08T14:01:28.225Z,11.47
2023-04-08T14:03:57.066Z,12.47
2023-04-08T14:06:26.712Z,11.20
2023-04-08T14:08:55.387Z,11.80
2023-04-08T14:11:24.033Z,11.73
2023-04-08T14:13:52.844Z,11.87
2023-04-08T14:16:21.716Z,12.10
2023-04-08T14:18:52.200Z,12.67
2023-04-08T14:21:21.405Z,12.03
2023-04-08T14:23:50.057Z,12.90
2023-04-08T14:26:18.804Z,12.27
2023-04-08T14:28:47.717Z,13.30
2023-04-08T14:31:16.922Z,12.20
2023-04-08T14:33:45.750Z,12.50
2023-04-08T14:36:15.969Z,12.13
2023-04-08T14:38:44.741Z,11.90
2023-04-08T14:41:13.519Z,14.73
2023-04-08T14:43:42.259Z,13.67
2023-04-08T14:46:11.043Z,14.10
2023-04-08T14:48:40.042Z,14.30
2023-04-08T14:51:08.892Z,14.20
2023-04-08T14:53:38.964Z,10.82
2023-04-08T14:56:10.141Z,14.53
2023-04-08T14:58:38.864Z,12.20
2023-04-08T15:01:07.575Z,13.20
2023-04-08T15:03:36.380Z,12.75
2023-04-08T15:06:06.589Z,12.18
2023-04-08T15:08:36.126Z,13.10
2023-04-08T15:11:06.413Z,12.13
2023-04-08T15:13:36.133Z,12.33
2023-04-08T15:16:04.897Z,12.80
2023-04-08T15:18:33.638Z,12.27
2023-04-08T15:21:02.361Z,12.00
2023-04-08T15:23:31.179Z,12.82
2023-04-08T15:26:00.035Z,11.73
2023-04-08T15:28:30.198Z,12.80
2023-04-08T15:30:58.887Z,12.05
2023-04-08T15:33:27.876Z,11.80
2023-04-08T15:35:57.579Z,12.80
2023-04-08T15:38:27.271Z,12.85
2023-04-08T15:40:55.902Z,12.40
2023-04-08T15:43:24.696Z,12.60
2023-04-08T15:45:55.528Z,12.20
2023-04-08T15:48:24.197Z,12.23
2023-04-08T15:50:53.650Z,13.13
2023-04-08T15:53:22.457Z,13.68
2023-04-08T15:55:51.632Z,12.43
2023-04-08T15:58:20.459Z,13.18
2023-04-08T16:00:49.544Z,13.45
2023-04-08T16:03:19.880Z,12.88
2023-04-08T16:05:48.867Z,14.45
2023-04-08T16:08:18.277Z,13.98
2023-04-08T16:10:47.169Z,13.65
2023-04-08T16:13:15.871Z,14.13
2023-04-08T16:15:45.274Z,14.52
2023-04-08T16:18:14.019Z,13.43
2023-04-08T16:20:44.024Z,13.67
2023-04-08T16:23:15.610Z,13.30
2023-04-08T16:25:44.282Z,14.77
2023-04-08T16:28:13.393Z,14.13
2023-04-08T16:30:44.133Z,13.75
2023-04-08T16:33:13.147Z,12.63
2023-04-08T16:35:43.361Z,14.67
2023-04-08T16:38:12.338Z,12.40
2023-04-08T16:40:40.973Z,13.07
2023-04-08T16:43:09.673Z,14.98
2023-04-08T16:45:39.194Z,14.18
2023-04-08T16:48:07.986Z,13.30
2023-04-08T16:50:39.149Z,12.18
2023-04-08T16:53:09.195Z,12.75
2023-04-08T16:55:38.248Z,13.30
2023-04-08T16:58:07.182Z,13.25
2023-04-08T17:00:36.456Z,12.68
2023-04-08T17:03:05.746Z,13.55
2023-04-08T17:05:34.559Z,12.63
2023-04-08T17:08:03.551Z,13.45
2023-04-08T17:10:33.822Z,12.87
2023-04-08T17:13:05.584Z,12.95
2023-04-08T17:15:37.898Z,13.13
2023-04-08T17:18:07.266Z,12.68
2023-04-08T17:20:36.184Z,12.65
2023-04-08T17:23:04.888Z,12.25
2023-04-08T17:25:35.557Z,12.57
2023-04-08T17:28:04.303Z,13.20
2023-04-08T17:30:32.918Z,12.50
2023-04-08T17:33:01.804Z,11.88
2023-04-08T17:35:30.904Z,13.53
2023-04-08T17:37:59.590Z,12.37
2023-04-08T17:40:28.315Z,13.63
2023-04-08T17:42:58.643Z,12.30
2023-04-08T17:45:27.599Z,12.43
2023-04-08T17:47:56.361Z,13.03
2023-04-08T17:50:25.284Z,12.97
2023-04-08T17:52:53.964Z,14.13
2023-04-08T17:55:22.934Z,14.05
2023-04-08T17:57:52.275Z,15.13
2023-04-08T18:00:22.581Z,13.73
2023-04-08T18:02:51.805Z,12.53
2023-04-08T18:05:20.735Z,15.37
2023-04-08T18:07:49.487Z,13.60
2023-04-08T18:10:18.584Z,12.90
2023-04-08T18:12:48.993Z,14.67
2023-04-08T18:15:18.474Z,14.07
2023-04-08T18:17:48.666Z,12.75
2023-04-08T18:20:17.481Z,13.60
2023-04-08T18:22:46.300Z,13.03
2023-04-08T18:25:15.117Z,12.68
2023-04-08T18:27:43.750Z,13.50
2023-04-08T18:30:13.083Z,13.07
2023-04-08T18:32:41.851Z,13.37
2023-04-08T18:35:12.228Z,12.07
2023-04-08T18:37:41.404Z,12.30
2023-04-08T18:40:11.475Z,11.20
2023-04-08T18:42:40.871Z,12.07
2023-04-08T18:45:10.292Z,17.03
2023-04-08T18:47:39.042Z,15.97
2023-04-08T18:50:08.754Z,11.50
2023-04-08T18:52:39.055Z,11.70
2023-04-08T18:55:08.312Z,11.38
2023-04-08T18:57:37.129Z,11.17
2023-04-08T19:00:07.057Z,10.57
2023-04-08T19:02:35.860Z,17.93
2023-04-08T19:05:04.833Z,13.10
2023-04-08T19:07:34.315Z,12.07
2023-04-08T19:10:04.500Z,11.50
2023-04-08T19:12:33.182Z,11.80
2023-04-08T19:15:04.026Z,11.00
2023-04-08T19:17:32.889Z,11.27
2023-04-08T19:20:03.216Z,10.43
2023-04-08T19:22:32.121Z,11.10
2023-04-08T19:25:00.888Z,9.13
2023-04-08T19:27:31.984Z,9.43
2023-04-08T19:30:00.893Z,8.75
2023-04-08T19:32:29.833Z,8.60
2023-04-08T19:34:58.442Z,8.17
2023-04-08T19:37:27.260Z,8.00
2023-04-08T19:39:55.960Z,7.93
2023-04-08T19:42:24.691Z,7.28
2023-04-08T19:44:55.236Z,7.33
2023-04-08T19:47:23.979Z,8.53
2023-04-08T19:49:52.728Z,5.80
2023-04-08T19:52:21.734Z,5.37
2023-04-08T19:54:51.694Z,5.47
2023-04-08T19:57:20.718Z,5.53
2023-04-08T19:59:49.794Z,4.87
2023-04-08T20:02:20.103Z,3.77
2023-04-08T20:04:48.887Z,3.50
2023-04-08T20:07:17.774Z,2.87
2023-04-08T20:09:46.511Z,3.33
2023-04-08T20:12:15.425Z,2.70
2023-04-08T20:14:45.115Z,2.63
2023-04-08T20:17:15.603Z,2.63
2023-04-08T20:19:45.796Z,2.65
2023-04-08T20:22:14.498Z,3.13
2023-04-08T20:24:43.216Z,3.07
2023-04-08T20:27:12.224Z,3.65
2023-04-08T20:29:41.977Z,3.80
2023-04-08T20:32:10.824Z,3.63
2023-04-08T20:34:39.454Z,4.40
2023-04-08T20:37:09.543Z,4.60
2023-04-08T20:39:38.485Z,4.45
2023-04-08T20:42:09.421Z,5.20
2023-04-08T20:44:38.140Z,5.70
2023-04-08T20:47:06.886Z,5.90
2023-04-08T20:49:37.477Z,5.80
2023-04-08T20:52:06.470Z,6.30
2023-04-08T20:54:36.639Z,6.07
2023-04-08T20:57:05.474Z,6.03
2023-04-08T20:59:34.104Z,6.97
2023-04-08T21:02:03.630Z,7.40
2023-04-08T21:04:51.070Z,7.37
2023-04-08T21:07:19.734Z,8.03
2023-04-08T21:09:50.313Z,8.57
2023-04-08T21:12:19.195Z,7.97
2023-04-08T21:14:47.950Z,12.53
2023-04-08T21:17:16.749Z,7.70
2023-04-08T21:19:46.833Z,7.90
2023-04-08T21:22:16.444Z,9.07
2023-04-08T21:24:45.115Z,8.87
2023-04-08T21:27:15.529Z,8.13
2023-04-08T21:29:44.276Z,8.10
2023-04-08T21:32:13.143Z,8.73
2023-04-08T21:34:41.959Z,12.07
2023-04-08T21:37:10.726Z,12.20
2023-04-08T21:39:39.573Z,9.93
2023-04-08T21:42:08.305Z,9.57
2023-04-08T21:44:38.342Z,10.60
2023-04-08T21:47:07.052Z,10.47
2023-04-08T21:49:36.340Z,12.07
2023-04-08T21:52:05.085Z,10.07
2023-04-08T21:54:33.903Z,11.50
2023-04-08T21:57:02.749Z,12.73
2023-04-08T21:59:31.383Z,12.70
2023-04-08T22:02:02.330Z,12.97
2023-04-08T22:04:31.106Z,12.23
2023-04-08T22:06:59.972Z,12.20
2023-04-08T22:09:28.929Z,14.87
2023-04-08T22:11:57.964Z,14.37
2023-04-08T22:14:26.737Z,15.13
2023-04-08T22:16:55.621Z,13.83
2023-04-08T22:19:25.788Z,13.63
2023-04-08T22:21:54.516Z,12.17
2023-04-08T22:24:23.415Z,14.77
2023-04-08T22:26:54.192Z,14.30
2023-04-08T22:29:22.986Z,14.40
2023-04-08T22:31:52.675Z,14.00
2023-04-08T22:34:21.524Z,15.00
2023-04-08T22:36:51.645Z,15.33
2023-04-08T22:39:20.233Z,15.43
2023-04-08T22:41:48.886Z,16.73
2023-04-08T22:44:17.541Z,15.50
2023-04-08T22:46:46.162Z,15.47
2023-04-08T22:49:14.765Z,16.83
2023-04-08T22:51:43.410Z,15.63
2023-04-08T22:54:13.490Z,15.33
2023-04-08T22:56:42.164Z,14.33
2023-04-08T22:59:11.095Z,14.70
2023-04-08T23:01:41.718Z,14.83
2023-04-08T23:04:10.564Z,15.10
2023-04-08T23:06:39.340Z,16.17
2023-04-08T23:09:07.997Z,14.93
2023-04-08T23:11:38.045Z,16.40
2023-04-08T23:14:06.746Z,16.23
2023-04-08T23:16:35.881Z,15.13
2023-04-08T23:19:04.565Z,16.17
2023-04-08T23:21:33.283Z,15.20
2023-04-08T23:24:02.002Z,15.47
2023-04-08T23:26:30.666Z,15.63
2023-04-08T23:29:00.752Z,15.97
2023-04-08T23:31:29.474Z,15.47
2023-04-08T23:33:58.225Z,15.87
2023-04-08T23:36:27.650Z,16.23
2023-04-08T23:38:56.325Z,16.83
2023-04-08T23:41:24.950Z,15.40
2023-04-08T23:43:53.768Z,15.53
2023-04-08T23:46:23.878Z,16.73
2023-04-08T23:48:52.883Z,16.40
2023-04-08T23:51:21.768Z,16.43
2023-04-08T23:53:52.020Z,18.30
2023-04-08T23:56:20.762Z,16.83
2023-04-08T23:58:49.532Z,15.97
